createdAt,value
2023-03-05T00:01:35.695Z,98884.00
2023-03-05T00:04:03.722Z,98886.00
2023-03-05T00:06:31.413Z,98891.00
2023-03-05T00:08:58.556Z,98877.00
2023-03-05T00:11:29.693Z,98886.00
2023-03-05T00:13:57.468Z,98888.00
2023-03-05T00:16:26.705Z,98877.00
2023-03-05T00:18:54.848Z,98882.00
2023-03-05T00:21:31.607Z,98886.00
2023-03-05T00:24:01.421Z,98879.00
2023-03-05T00:26:28.860Z,98867.00
2023-03-05T00:28:57.519Z,98875.00
2023-03-05T00:31:30.118Z,98869.00
2023-03-05T00:33:59.806Z,98867.00
2023-03-05T00:36:26.526Z,98863.00
2023-03-05T00:38:53.265Z,98859.00
2023-03-05T00:41:19.795Z,98867.00
2023-03-05T00:43:47.002Z,98860.00
2023-03-05T00:46:13.533Z,98857.00
2023-03-05T00:48:41.341Z,98842.00
2023-03-05T00:51:09.098Z,98850.00
2023-03-05T00:53:35.830Z,98848.00
2023-03-05T00:56:02.338Z,98830.00
2023-03-05T00:58:29.436Z,98833.00
2023-03-05T01:01:00.033Z,98821.00
2023-03-05T01:03:27.404Z,98831.00
2023-03-05T01:05:55.709Z,98837.00
2023-03-05T01:08:22.193Z,98836.00
2023-03-05T01:10:49.144Z,98833.00
2023-03-05T01:13:15.848Z,98826.00
2023-03-05T01:15:42.334Z,98820.00
2023-03-05T01:18:09.013Z,98831.00
2023-03-05T01:20:35.899Z,98822.00
2023-03-05T01:23:02.732Z,98818.00
2023-03-05T01:25:29.233Z,98825.00
2023-03-05T01:27:56.140Z,98810.00
2023-03-05T01:30:22.636Z,98818.00
2023-03-05T01:32:49.062Z,98820.00
2023-03-05T01:35:19.198Z,98811.00
2023-03-05T01:37:46.220Z,98809.00
2023-03-05T01:40:15.794Z,98806.00
2023-03-05T01:42:55.253Z,98802.00
2023-03-05T01:45:22.131Z,98806.00
2023-03-05T01:47:48.938Z,98811.00
2023-03-05T01:50:22.924Z,98806.00
2023-03-05T01:52:55.183Z,98803.00
2023-03-05T01:55:24.488Z,98805.00
2023-03-05T01:57:57.081Z,98798.00
2023-03-05T02:00:30.929Z,98798.00
2023-03-05T02:03:02.977Z,98788.00
2023-03-05T02:05:32.720Z,98785.00
2023-03-05T02:08:01.034Z,98785.00
2023-03-05T02:10:34.718Z,98780.00
2023-03-05T02:13:06.396Z,98774.00
2023-03-05T02:15:33.970Z,98784.00
2023-03-05T02:18:01.289Z,98773.00
2023-03-05T02:20:32.046Z,98770.00
2023-03-05T02:22:58.479Z,98768.00
2023-03-05T02:25:29.767Z,98758.00
2023-03-05T02:28:25.375Z,98765.00
2023-03-05T02:30:52.188Z,98753.00
2023-03-05T02:33:19.687Z,98757.00
2023-03-05T02:35:47.299Z,98756.00
2023-03-05T02:38:16.731Z,98757.00
2023-03-05T02:40:43.464Z,98755.00
2023-03-05T02:43:10.914Z,98747.00
2023-03-05T02:45:38.273Z,98749.00
2023-03-05T02:48:04.856Z,98741.00
2023-03-05T02:50:32.097Z,98743.00
2023-03-05T02:52:58.913Z,98742.00
2023-03-05T02:55:25.510Z,98734.00
2023-03-05T02:57:51.948Z,98736.00
2023-03-05T03:00:18.635Z,98732.00
2023-03-05T03:02:45.152Z,98736.00
2023-03-05T03:05:11.647Z,98731.00
2023-03-05T03:07:38.210Z,98723.00
2023-03-05T03:10:05.786Z,98717.00
2023-03-05T03:12:32.279Z,98725.00
2023-03-05T03:15:00.895Z,98720.00
2023-03-05T03:17:27.383Z,98724.00
2023-03-05T03:19:53.828Z,98718.00
2023-03-05T03:22:20.236Z,98714.00
2023-03-05T03:24:46.736Z,98703.00
2023-03-05T03:27:13.235Z,98705.00
2023-03-05T03:29:39.689Z,98705.00
2023-03-05T03:32:06.439Z,98699.00
2023-03-05T03:34:32.982Z,98701.00
2023-03-05T03:36:59.435Z,98702.00
2023-03-05T03:39:25.873Z,98690.00
2023-03-05T03:41:53.431Z,98695.00
2023-03-05T03:44:21.381Z,98693.00
2023-03-05T03:46:49.577Z,98684.00
2023-03-05T03:49:24.893Z,98686.00
2023-03-05T03:51:54.296Z,98682.00
2023-03-05T03:54:21.962Z,98682.00
2023-03-05T03:56:48.395Z,98687.00
2023-03-05T03:59:14.916Z,98678.00
2023-03-05T04:01:41.504Z,98682.00
2023-03-05T04:04:08.790Z,98681.00
2023-03-05T04:06:35.668Z,98687.00
2023-03-05T04:09:02.285Z,98687.00
2023-03-05T04:11:29.010Z,98684.00
2023-03-05T04:13:55.641Z,98683.00
2023-03-05T04:16:22.336Z,98685.00
2023-03-05T04:18:48.983Z,98680.00
2023-03-05T04:21:15.438Z,98675.00
2023-03-05T04:23:41.979Z,98680.00
2023-03-05T04:26:08.617Z,98679.00
2023-03-05T04:28:35.790Z,98675.00
2023-03-05T04:31:03.164Z,98677.00
2023-03-05T04:33:29.614Z,98668.00
2023-03-05T04:35:56.197Z,98661.00
2023-03-05T04:38:22.776Z,98667.00
2023-03-05T04:40:49.210Z,98666.00
2023-03-05T04:43:15.617Z,98667.00
2023-03-05T04:45:43.947Z,98670.00
2023-03-05T04:48:11.101Z,98665.00
2023-03-05T04:50:38.044Z,98665.00
2023-03-05T04:53:04.688Z,98669.00
2023-03-05T04:55:31.418Z,98664.00
2023-03-05T04:57:58.410Z,98665.00
2023-03-05T05:00:25.175Z,98661.00
2023-03-05T05:02:52.290Z,98661.00
2023-03-05T05:05:22.456Z,98656.00
2023-03-05T05:07:49.043Z,98658.00
2023-03-05T05:10:16.853Z,98655.00
2023-03-05T05:12:43.479Z,98654.00
2023-03-05T05:15:11.868Z,98655.00
2023-03-05T05:17:38.345Z,98656.00
2023-03-05T05:20:08.202Z,98651.00
2023-03-05T05:22:35.161Z,98649.00
2023-03-05T05:25:02.096Z,98639.00
2023-03-05T05:27:28.529Z,98646.00
2023-03-05T05:29:55.028Z,98644.00
2023-03-05T05:32:24.054Z,98651.00
2023-03-05T05:34:57.786Z,98643.00
2023-03-05T05:37:25.417Z,98645.00
2023-03-05T05:39:52.374Z,98642.00
2023-03-05T05:42:21.215Z,98643.00
2023-03-05T05:44:47.760Z,98648.00
2023-03-05T05:47:15.995Z,98642.00
2023-03-05T05:49:42.643Z,98640.00
2023-03-05T05:52:09.084Z,98643.00
2023-03-05T05:54:35.590Z,98635.00
2023-03-05T05:57:02.048Z,98642.00
2023-03-05T05:59:28.550Z,98633.00
2023-03-05T06:01:55.134Z,98634.00
2023-03-05T06:04:21.864Z,98627.00
2023-03-05T06:06:48.363Z,98622.00
2023-03-05T06:09:15.089Z,98622.00
2023-03-05T06:11:41.652Z,98622.00
2023-03-05T06:14:08.768Z,98621.00
2023-03-05T06:16:35.407Z,98626.00
2023-03-05T06:19:04.513Z,98626.00
2023-03-05T06:21:31.408Z,98629.00
2023-03-05T06:23:58.672Z,98619.00
2023-03-05T06:26:25.656Z,98626.00
2023-03-05T06:28:52.588Z,98625.00
2023-03-05T06:31:27.709Z,98620.00
2023-03-05T06:33:56.483Z,98630.00
2023-03-05T06:36:24.846Z,98627.00
2023-03-05T06:38:53.502Z,98622.00
2023-03-05T06:41:23.020Z,98621.00
2023-03-05T06:43:49.508Z,98622.00
2023-03-05T06:46:21.960Z,98630.00
2023-03-05T06:48:49.181Z,98618.00
2023-03-05T06:51:20.252Z,98622.00
2023-03-05T06:53:49.382Z,98627.00
2023-03-05T06:56:17.194Z,98633.00
2023-03-05T06:58:46.193Z,98625.00
2023-03-05T07:01:13.928Z,98628.00
2023-03-05T07:03:41.128Z,98632.00
2023-03-05T07:06:12.006Z,98627.00
2023-03-05T07:08:38.972Z,98630.00
2023-03-05T07:11:19.944Z,98627.00
2023-03-05T07:13:47.781Z,98623.00
2023-03-05T07:16:16.618Z,98620.00
2023-03-05T07:18:43.738Z,98621.00
2023-03-05T07:21:14.709Z,98619.00
2023-03-05T07:23:41.093Z,98609.00
2023-03-05T07:26:07.568Z,98617.00
2023-03-05T07:28:34.567Z,98620.00
2023-03-05T07:31:04.777Z,98619.00
2023-03-05T07:33:32.076Z,98613.00
2023-03-05T07:35:58.650Z,98615.00
2023-03-05T07:38:25.213Z,98602.00
2023-03-05T07:40:51.649Z,98610.00
2023-03-05T07:43:18.859Z,98604.00
2023-03-05T07:45:46.272Z,98610.00
2023-03-05T07:48:15.274Z,98617.00
2023-03-05T07:50:42.037Z,98612.00
2023-03-05T07:53:09.213Z,98613.00
2023-03-05T07:55:42.200Z,98612.00
2023-03-05T07:58:08.695Z,98608.00
2023-03-05T08:00:35.127Z,98606.00
2023-03-05T08:03:01.610Z,98604.00
2023-03-05T08:05:28.172Z,98600.00
2023-03-05T08:07:54.593Z,98610.00
2023-03-05T08:10:21.058Z,98605.00
2023-03-05T08:12:47.534Z,98599.00
2023-03-05T08:15:13.974Z,98598.00
2023-03-05T08:17:40.462Z,98600.00
2023-03-05T08:20:10.700Z,98598.00
2023-03-05T08:22:37.870Z,98603.00
2023-03-05T08:25:06.193Z,98593.00
2023-03-05T08:27:32.620Z,98598.00
2023-03-05T08:30:02.567Z,98600.00
2023-03-05T08:32:29.247Z,98600.00
2023-03-05T08:34:58.312Z,98600.00
2023-03-05T08:37:25.106Z,98597.00
2023-03-05T08:39:51.560Z,98594.00
2023-03-05T08:42:18.088Z,98595.00
2023-03-05T08:44:44.678Z,98588.00
2023-03-05T08:47:11.161Z,98586.00
2023-03-05T08:49:37.600Z,98587.00
2023-03-05T08:52:04.132Z,98585.00
2023-03-05T08:54:30.604Z,98586.00
2023-03-05T08:56:57.036Z,98579.00
2023-03-05T08:59:23.499Z,98583.00
2023-03-05T09:01:50.158Z,98581.00
2023-03-05T09:04:16.846Z,98588.00
2023-03-05T09:06:43.360Z,98583.00
2023-03-05T09:09:10.048Z,98581.00
2023-03-05T09:11:36.999Z,98571.00
2023-03-05T09:14:04.893Z,98582.00
2023-03-05T09:16:31.569Z,98580.00
2023-03-05T09:18:59.172Z,98574.00
2023-03-05T09:21:25.744Z,98560.00
2023-03-05T09:23:52.318Z,98569.00
2023-03-05T09:26:20.065Z,98572.00
2023-03-05T09:28:47.659Z,98574.00
2023-03-05T09:31:14.196Z,98567.00
2023-03-05T09:33:40.849Z,98575.00
2023-03-05T09:36:18.392Z,98572.00
2023-03-05T09:38:44.843Z,98569.00
2023-03-05T09:41:27.941Z,98556.00
2023-03-05T09:44:15.969Z,98553.00
2023-03-05T09:46:48.417Z,98548.00
2023-03-05T09:49:20.577Z,98553.00
2023-03-05T09:51:51.311Z,98541.00
2023-03-05T09:54:22.926Z,98543.00
2023-03-05T09:56:56.534Z,98540.00
2023-03-05T09:59:25.853Z,98531.00
2023-03-05T10:01:53.327Z,98546.00
2023-03-05T10:04:42.236Z,98527.00
2023-03-05T10:07:16.791Z,98537.00
2023-03-05T10:09:48.884Z,98526.00
2023-03-05T10:12:27.687Z,98528.00
2023-03-05T10:14:55.114Z,98534.00
2023-03-05T10:17:39.483Z,98524.00
2023-03-05T10:20:24.717Z,98521.00
2023-03-05T10:23:06.490Z,98524.00
2023-03-05T10:25:51.775Z,98522.00
2023-03-05T10:28:25.129Z,98514.00
2023-03-05T10:31:01.051Z,98523.00
2023-03-05T10:33:42.236Z,98518.00
2023-03-05T10:36:16.663Z,98515.00
2023-03-05T10:39:14.654Z,98516.00
2023-03-05T10:42:02.360Z,98505.00
2023-03-05T10:44:31.546Z,98517.00
2023-03-05T10:47:00.641Z,98505.00
2023-03-05T10:49:32.229Z,98497.00
2023-03-05T10:52:06.178Z,98503.00
2023-03-05T10:54:35.731Z,98498.00
2023-03-05T10:57:05.063Z,98486.00
2023-03-05T10:59:32.339Z,98490.00
2023-03-05T11:02:06.277Z,98486.00
2023-03-05T11:04:36.561Z,98491.00
2023-03-05T11:07:27.608Z,98489.00
2023-03-05T11:10:00.124Z,98477.00
2023-03-05T11:12:27.529Z,98475.00
2023-03-05T11:15:06.287Z,98484.00
2023-03-05T11:17:44.432Z,98477.00
2023-03-05T11:20:29.223Z,98473.00
2023-03-05T11:23:04.504Z,98476.00
2023-03-05T11:25:32.834Z,98480.00
2023-03-05T11:28:01.036Z,98472.00
2023-03-05T11:30:33.979Z,98465.00
2023-03-05T11:33:20.349Z,98467.00
2023-03-05T11:35:48.435Z,98462.00
2023-03-05T11:38:20.962Z,98460.00
2023-03-05T11:40:48.314Z,98462.00
2023-03-05T11:43:18.038Z,98459.00
2023-03-05T11:45:45.758Z,98455.00
2023-03-05T11:48:20.850Z,98459.00
2023-03-05T11:50:54.236Z,98445.00
2023-03-05T11:53:25.328Z,98442.00
2023-03-05T11:56:31.564Z,98448.00
2023-03-05T11:59:05.076Z,98438.00
2023-03-05T12:01:35.912Z,98439.00
2023-03-05T12:04:04.224Z,98436.00
2023-03-05T12:06:43.045Z,98423.00
2023-03-05T12:09:30.197Z,98427.00
2023-03-05T12:12:06.196Z,98412.00
2023-03-05T12:15:00.998Z,98415.00
2023-03-05T12:18:09.066Z,98402.00
2023-03-05T12:20:45.762Z,98405.00
2023-03-05T12:23:15.660Z,98405.00
2023-03-05T12:25:42.045Z,98396.00
2023-03-05T12:28:15.260Z,98390.00
2023-03-05T12:30:42.288Z,98389.00
2023-03-05T12:33:43.816Z,98389.00
2023-03-05T12:36:19.251Z,98382.00
2023-03-05T12:38:51.821Z,98379.00
2023-03-05T12:41:25.394Z,98388.00
2023-03-05T12:44:05.250Z,98385.00
2023-03-05T12:46:43.545Z,98385.00
2023-03-05T12:49:19.123Z,98374.00
2023-03-05T12:51:56.591Z,98368.00
2023-03-05T12:54:26.781Z,98369.00
2023-03-05T12:56:55.930Z,98370.00
2023-03-05T12:59:27.867Z,98366.00
2023-03-05T13:02:00.469Z,98357.00
2023-03-05T13:04:30.411Z,98354.00
2023-03-05T13:07:04.807Z,98352.00
2023-03-05T13:09:35.719Z,98352.00
2023-03-05T13:12:04.769Z,98350.00
2023-03-05T13:14:44.950Z,98346.00
2023-03-05T13:17:37.971Z,98341.00
2023-03-05T13:20:31.335Z,98342.00
2023-03-05T13:23:16.005Z,98327.00
2023-03-05T13:25:43.561Z,98325.00
2023-03-05T13:28:14.153Z,98321.00
2023-03-05T13:30:50.251Z,98327.00
2023-03-05T13:33:20.002Z,98314.00
2023-03-05T13:35:47.338Z,98320.00
2023-03-05T13:38:28.450Z,98311.00
2023-03-05T13:41:11.395Z,98312.00
2023-03-05T13:43:57.694Z,98315.00
2023-03-05T13:46:38.641Z,98316.00
2023-03-05T13:49:23.448Z,98310.00
2023-03-05T13:51:56.467Z,98306.00
2023-03-05T13:54:24.884Z,98299.00
2023-03-05T13:57:02.894Z,98297.00
2023-03-05T13:59:32.310Z,98304.00
2023-03-05T14:02:00.702Z,98290.00
2023-03-05T14:04:28.238Z,98298.00
2023-03-05T14:06:59.611Z,98287.00
2023-03-05T14:09:32.096Z,98282.00
2023-03-05T14:12:00.736Z,98273.00
2023-03-05T14:14:29.065Z,98278.00
2023-03-05T14:16:56.064Z,98273.00
2023-03-05T14:19:38.834Z,98268.00
2023-03-05T14:22:06.485Z,98263.00
2023-03-05T14:24:34.019Z,98255.00
2023-03-05T14:27:08.629Z,98257.00
2023-03-05T14:29:36.196Z,98249.00
2023-03-05T14:32:05.972Z,98250.00
2023-03-05T14:34:39.744Z,98245.00
2023-03-05T14:37:23.275Z,98252.00
2023-03-05T14:39:54.107Z,98246.00
2023-03-05T14:42:32.952Z,98246.00
2023-03-05T14:45:16.217Z,98239.00
2023-03-05T14:47:45.676Z,98238.00
2023-03-05T14:50:16.844Z,98227.00
2023-03-05T14:52:44.747Z,98229.00
2023-03-05T14:55:20.105Z,98229.00
2023-03-05T14:57:47.951Z,98218.00
2023-03-05T15:00:24.078Z,98221.00
2023-03-05T15:02:50.803Z,98216.00
2023-03-05T15:05:18.366Z,98200.00
2023-03-05T15:07:46.386Z,98205.00
2023-03-05T15:10:19.370Z,98198.00
2023-03-05T15:12:46.879Z,98197.00
2023-03-05T15:15:14.704Z,98195.00
2023-03-05T15:17:43.652Z,98188.00
2023-03-05T15:20:20.076Z,98187.00
2023-03-05T15:22:47.021Z,98177.00
2023-03-05T15:25:13.738Z,98175.00
2023-03-05T15:27:40.928Z,98171.00
2023-03-05T15:30:09.489Z,98174.00
2023-03-05T15:32:36.052Z,98158.00
2023-03-05T15:35:02.643Z,98160.00
2023-03-05T15:37:29.396Z,98156.00
2023-03-05T15:39:55.917Z,98149.00
2023-03-05T15:42:22.423Z,98142.00
2023-03-05T15:44:48.963Z,98137.00
2023-03-05T15:47:15.517Z,98137.00
2023-03-05T15:49:42.011Z,98142.00
2023-03-05T15:52:08.685Z,98124.00
2023-03-05T15:54:36.259Z,98125.00
2023-03-05T15:57:03.443Z,98124.00
2023-03-05T15:59:29.903Z,98121.00
2023-03-05T16:01:56.492Z,98118.00
2023-03-05T16:04:22.995Z,98115.00
2023-03-05T16:06:50.517Z,98112.00
2023-03-05T16:09:19.059Z,98122.00
2023-03-05T16:11:47.972Z,98127.00
2023-03-05T16:14:19.224Z,98118.00
2023-03-05T16:16:46.052Z,98118.00
2023-03-05T16:19:15.547Z,98125.00
2023-03-05T16:21:42.456Z,98112.00
2023-03-05T16:24:09.201Z,98115.00
2023-03-05T16:26:37.256Z,98121.00
2023-03-05T16:29:04.193Z,98110.00
2023-03-05T16:31:34.025Z,98107.00
2023-03-05T16:34:01.600Z,98106.00
2023-03-05T16:36:35.018Z,98105.00
2023-03-05T16:39:04.151Z,98095.00
2023-03-05T16:41:30.711Z,98099.00
2023-03-05T16:43:59.438Z,98102.00
2023-03-05T16:46:28.494Z,98102.00
2023-03-05T16:48:55.389Z,98100.00
2023-03-05T16:51:22.605Z,98096.00
2023-03-05T16:53:49.553Z,98093.00
2023-03-05T16:56:16.615Z,98085.00
2023-03-05T16:58:43.166Z,98087.00
2023-03-05T17:01:16.418Z,98093.00
2023-03-05T17:03:44.005Z,98091.00
2023-03-05T17:06:23.140Z,98090.00
2023-03-05T17:08:50.669Z,98083.00
2023-03-05T17:11:17.560Z,98088.00
2023-03-05T17:13:46.491Z,98090.00
2023-03-05T17:16:16.917Z,98087.00
2023-03-05T17:18:43.444Z,98077.00
2023-03-05T17:21:11.572Z,98091.00
2023-03-05T17:23:38.764Z,98079.00
2023-03-05T17:26:13.834Z,98085.00
2023-03-05T17:28:40.950Z,98079.00
2023-03-05T17:31:07.690Z,98075.00
2023-03-05T17:33:35.230Z,98085.00
2023-03-05T17:36:02.538Z,98078.00
2023-03-05T17:38:29.626Z,98073.00
2023-03-05T17:40:56.151Z,98076.00
2023-03-05T17:43:22.707Z,98076.00
2023-03-05T17:45:49.232Z,98071.00
2023-03-05T17:48:16.233Z,98079.00
2023-03-05T17:50:44.921Z,98065.00
2023-03-05T17:53:11.561Z,98069.00
2023-03-05T17:55:38.968Z,98074.00
2023-03-05T17:58:05.549Z,98073.00
2023-03-05T18:00:32.527Z,98072.00
2023-03-05T18:02:59.753Z,98079.00
2023-03-05T18:05:27.557Z,98070.00
2023-03-05T18:07:55.398Z,98068.00
2023-03-05T18:10:24.518Z,98069.00
2023-03-05T18:12:51.545Z,98063.00
2023-03-05T18:15:20.967Z,98067.00
2023-03-05T18:17:47.692Z,98051.00
2023-03-05T18:20:31.075Z,98049.00
2023-03-05T18:22:59.748Z,98053.00
2023-03-05T18:25:30.692Z,98047.00
2023-03-05T18:27:58.971Z,98050.00
2023-03-05T18:30:26.056Z,98046.00
2023-03-05T18:32:52.567Z,98036.00
2023-03-05T18:35:19.185Z,98044.00
2023-03-05T18:37:45.773Z,98040.00
2023-03-05T18:40:19.556Z,98038.00
2023-03-05T18:42:46.211Z,98043.00
2023-03-05T18:45:17.778Z,98040.00
2023-03-05T18:47:44.628Z,98038.00
2023-03-05T18:50:14.821Z,98040.00
2023-03-05T18:52:42.419Z,98046.00
2023-03-05T18:55:15.585Z,98043.00
2023-03-05T18:57:42.109Z,98031.00
2023-03-05T19:00:09.428Z,98032.00
2023-03-05T19:02:35.932Z,98025.00
2023-03-05T19:05:02.794Z,98028.00
2023-03-05T19:07:29.893Z,98028.00
2023-03-05T19:09:59.602Z,98014.00
2023-03-05T19:12:35.121Z,98016.00
2023-03-05T19:15:02.665Z,98014.00
2023-03-05T19:17:31.657Z,98010.00
2023-03-05T19:20:06.216Z,98015.00
2023-03-05T19:22:33.355Z,98015.00
2023-03-05T19:25:00.343Z,98018.00
2023-03-05T19:27:27.049Z,98017.00
2023-03-05T19:29:53.638Z,98010.00
2023-03-05T19:32:21.887Z,98012.00
2023-03-05T19:34:48.813Z,98000.00
2023-03-05T19:37:15.690Z,98003.00
2023-03-05T19:39:42.511Z,98004.00
2023-03-05T19:42:09.228Z,98000.00
2023-03-05T19:44:36.164Z,97997.00
2023-03-05T19:47:03.006Z,98004.00
2023-03-05T19:49:29.795Z,98001.00
2023-03-05T19:51:56.885Z,98000.00
2023-03-05T19:54:23.668Z,97995.00
2023-03-05T19:56:53.585Z,97993.00
2023-03-05T19:59:21.070Z,97993.00
2023-03-05T20:01:48.946Z,97986.00
2023-03-05T20:04:19.415Z,97990.00
2023-03-05T20:06:46.286Z,97984.00
2023-03-05T20:09:14.019Z,97982.00
2023-03-05T20:11:40.925Z,97986.00
2023-03-05T20:14:07.610Z,97991.00
2023-03-05T20:16:35.932Z,97987.00
2023-03-05T20:19:03.672Z,97984.00
2023-03-05T20:21:33.722Z,97977.00
2023-03-05T20:24:03.844Z,97983.00
2023-03-05T20:26:31.025Z,97975.00
2023-03-05T20:28:57.850Z,97975.00
2023-03-05T20:31:26.839Z,97974.00
2023-03-05T20:33:56.081Z,97972.00
2023-03-05T20:36:23.722Z,97974.00
2023-03-05T20:38:50.493Z,97971.00
2023-03-05T20:41:23.121Z,97965.00
2023-03-05T20:43:51.509Z,97963.00
2023-03-05T20:46:30.433Z,97968.00
2023-03-05T20:49:02.354Z,97959.00
2023-03-05T20:51:35.776Z,97960.00
2023-03-05T20:54:13.277Z,97960.00
2023-03-05T20:56:39.897Z,97958.00
2023-03-05T20:59:08.835Z,97946.00
2023-03-05T21:01:40.785Z,97947.00
2023-03-05T21:04:07.951Z,97955.00
2023-03-05T21:06:35.498Z,97948.00
2023-03-05T21:09:02.665Z,97949.00
2023-03-05T21:11:29.460Z,97946.00
2023-03-05T21:13:56.011Z,97949.00
2023-03-05T21:16:25.007Z,97946.00
2023-03-05T21:18:52.623Z,97935.00
2023-03-05T21:21:20.048Z,97936.00
2023-03-05T21:23:49.486Z,97945.00
2023-03-05T21:26:18.410Z,97937.00
2023-03-05T21:28:45.083Z,97932.00
2023-03-05T21:31:16.682Z,97924.00
2023-03-05T21:33:43.524Z,97921.00
2023-03-05T21:36:10.355Z,97926.00
2023-03-05T21:38:36.957Z,97921.00
2023-03-05T21:41:04.314Z,97920.00
2023-03-05T21:43:31.613Z,97913.00
2023-03-05T21:46:00.409Z,97907.00
2023-03-05T21:48:27.286Z,97897.00
2023-03-05T21:50:55.128Z,97900.00
2023-03-05T21:53:21.854Z,97900.00
2023-03-05T21:56:10.857Z,97886.00
2023-03-05T21:58:37.334Z,97881.00
2023-03-05T22:01:04.003Z,97878.00
2023-03-05T22:03:30.815Z,97881.00
2023-03-05T22:05:57.519Z,97875.00
2023-03-05T22:08:24.540Z,97872.00
2023-03-05T22:10:51.118Z,97867.00
2023-03-05T22:13:20.781Z,97860.00
2023-03-05T22:15:50.205Z,97866.00
2023-03-05T22:18:20.113Z,97848.00
2023-03-05T22:20:47.659Z,97844.00
2023-03-05T22:23:15.649Z,97845.00
2023-03-05T22:25:43.317Z,97837.00
2023-03-05T22:28:11.387Z,97844.00
2023-03-05T22:30:43.636Z,97844.00
2023-03-05T22:33:11.012Z,97841.00
2023-03-05T22:35:39.433Z,97834.00
2023-03-05T22:38:06.628Z,97841.00
2023-03-05T22:40:33.368Z,97832.00
2023-03-05T22:43:07.571Z,97829.00
2023-03-05T22:45:33.955Z,97822.00
2023-03-05T22:48:00.426Z,97816.00
2023-03-05T22:50:27.186Z,97818.00
2023-03-05T22:52:53.825Z,97822.00
2023-03-05T22:55:20.844Z,97814.00
2023-03-05T22:57:47.535Z,97811.00
2023-03-05T23:00:18.282Z,97818.00
2023-03-05T23:02:45.102Z,97806.00
2023-03-05T23:05:11.735Z,97803.00
2023-03-05T23:07:42.477Z,97801.00
2023-03-05T23:10:11.137Z,97781.00
2023-03-05T23:12:41.102Z,97776.00
2023-03-05T23:15:10.251Z,97768.00
2023-03-05T23:17:36.743Z,97783.00
2023-03-05T23:20:05.090Z,97780.00
2023-03-05T23:22:31.523Z,97775.00
2023-03-05T23:24:58.026Z,97777.00
2023-03-05T23:27:24.515Z,97779.00
2023-03-05T23:30:15.438Z,97777.00
2023-03-05T23:32:53.889Z,97784.00
2023-03-05T23:35:22.445Z,97780.00
2023-03-05T23:37:49.602Z,97772.00
2023-03-05T23:40:37.907Z,97777.00
2023-03-05T23:43:04.608Z,97779.00
2023-03-05T23:45:31.777Z,97760.00
2023-03-05T23:47:58.520Z,97768.00
2023-03-05T23:50:28.485Z,97770.00
2023-03-05T23:52:55.293Z,97762.00
2023-03-05T23:55:27.438Z,97758.00
2023-03-05T23:57:54.629Z,97753.00
